Louisville, KY

1:50 AM EST on January 27, 2015 (GMT -0500)
APRSWXNET Louisville KY US | Change Station
CLOSE
Current Station
Personal Weather Station
Location: Louisville, KY
Elevation: 492 ft
Nearby Weather Stations
Active Advisory: Special Statement

Elev 492 ft 38.22 °N, 85.75 °W | Updated 44 minutes ago

Snow
Snow
29 °F
Feels Like 29 °F
N
0
Wind Variable Wind from West
Gusts 2.0 mph

Today
High -- | Low -- °F
--% Chance of Precip.
Yesterday
High -- | Low -- °F
Precip. -- in
7:52 AM 5:59 PM
Waxing Crescent, 51% visible
Pressure 29.92 in
Visibility 3.0 miles
Clouds Scattered Clouds 800 ft
Overcast 1400 ft
Windchill 29 °F
Dew Point 26 °F
Humidity 89%
Rainfall 0.01 in
Snow Depth Not available.
UV 0 out of 12
Pollen .10 out of 12
Air Quality Not available.
Flu Activity Not available.
SPECI KSDF 270608Z VRB03KT 3SM -SN BR SCT008 OVC014 M01/M03 A2992 RMK AO2 P0000 T10111033

More Conditions Fewer Conditions

Pressure 29.92 in
Visibility 3.0 miles
Clouds Scattered Clouds 800 ft
Overcast 1400 ft
Windchill 29 °F
Dew Point 26 °F
Humidity 89%
Rainfall 0.01 in
Snow Depth Not available.
UV 0 out of 12
Pollen .10 out of 12
Air Quality Not available.
Flu Activity Not available.
SPECI KSDF 270608Z VRB03KT 3SM -SN BR SCT008 OVC014 M01/M03 A2992 RMK AO2 P0000 T10111033

More Conditions Fewer Conditions

10-Day Weather Forecast

Almanac

Astronomy

Jan. 27, 2015 Rise Set
Actual Time
Civil Twilight
Nautical Twilight
Astronomical Twilight
Moon
Length of Visible Light
Length of Day
Tomorrow will be .
, % of the Moon is Illuminated

Today's Extremes

State Highs State Lows

Community

WunderPhotos

Upload Photos

1,790,545 photos uploaded!

WunderBlogs® & News

Nearby

Air Quality

  Air Quality AQ Index Pollutant
Not available.

Snow Depth

Station Depth Elevation

Earthquake Activity

City Distance Mag. Time & Date
Minimum magnitude displayed is 2.5.

Coastal Water Temperatures

Place Temperature

Nearby Weather Stations